Adak Island, Alaska
Current Conditions -  °F | °C
As of 5:56 PM on Wednesday 22 Oct 2014 (Local Time) from PADK Reporting Station
Overcast Overcast  
Wind Chill:   Ceiling: 3600
Heat Index:   Visibility: 10mi
Dew Point:   Wind: 13mph
Humidity: 71%   Direction: 230°SW
Pressure: 30.28"   Gusts: 20mph
Location:  51.88°N, 176.65°W
Report Text: PADK 230256Z AUTO 23011G17KT 10SM SCT029 OVC036 08/03 A3028 RMK AO1 57003
Loading
Personal Weather Stations






























Interactive Weather Map New forecast layout! Learn more

10-Day Weather Forecast

Advertisements
Track Severe Weather on mobile